sensor_id;sensor_type;location;lat;lon;timestamp;P1;durP1;ratioP1;P2;durP2;ratioP2
83115;SDS011;72996;40.206;44.498;2023-12-20T00:01:48;16.90;;;8.57;;
83115;SDS011;72996;40.206;44.498;2023-12-20T00:04:14;14.55;;;7.93;;
83115;SDS011;72996;40.206;44.498;2023-12-20T00:06:40;16.63;;;8.13;;
83115;SDS011;72996;40.206;44.498;2023-12-20T00:09:05;16.35;;;7.22;;
83115;SDS011;72996;40.206;44.498;2023-12-20T00:11:31;12.90;;;6.75;;
83115;SDS011;72996;40.206;44.498;2023-12-20T00:13:56;15.77;;;6.68;;
83115;SDS011;72996;40.206;44.498;2023-12-20T00:16:23;16.05;;;7.53;;
83115;SDS011;72996;40.206;44.498;2023-12-20T00:18:49;16.98;;;7.35;;
83115;SDS011;72996;40.206;44.498;2023-12-20T00:21:15;14.65;;;7.13;;
83115;SDS011;72996;40.206;44.498;2023-12-20T00:23:40;15.15;;;6.78;;
83115;SDS011;72996;40.206;44.498;2023-12-20T00:26:06;16.48;;;7.68;;
83115;SDS011;72996;40.206;44.498;2023-12-20T00:28:31;14.57;;;6.95;;
83115;SDS011;72996;40.206;44.498;2023-12-20T00:30:57;14.07;;;6.82;;
83115;SDS011;72996;40.206;44.498;2023-12-20T00:33:23;16.90;;;7.60;;
83115;SDS011;72996;40.206;44.498;2023-12-20T00:35:49;18.98;;;7.60;;
83115;SDS011;72996;40.206;44.498;2023-12-20T00:38:14;15.90;;;7.60;;
83115;SDS011;72996;40.206;44.498;2023-12-20T00:40:40;13.07;;;7.05;;
83115;SDS011;72996;40.206;44.498;2023-12-20T00:43:05;18.80;;;6.97;;
83115;SDS011;72996;40.206;44.498;2023-12-20T00:45:31;15.30;;;7.63;;
83115;SDS011;72996;40.206;44.498;2023-12-20T00:47:57;21.95;;;8.88;;
83115;SDS011;72996;40.206;44.498;2023-12-20T00:50:24;16.10;;;7.05;;
83115;SDS011;72996;40.206;44.498;2023-12-20T00:52:49;16.67;;;7.63;;
83115;SDS011;72996;40.206;44.498;2023-12-20T00:55:15;14.95;;;7.00;;
83115;SDS011;72996;40.206;44.498;2023-12-20T00:57:41;18.40;;;7.53;;
83115;SDS011;72996;40.206;44.498;2023-12-20T01:00:06;18.52;;;8.60;;
83115;SDS011;72996;40.206;44.498;2023-12-20T01:05:00;18.02;;;8.05;;
83115;SDS011;72996;40.206;44.498;2023-12-20T01:07:25;15.05;;;7.78;;
83115;SDS011;72996;40.206;44.498;2023-12-20T01:09:51;18.92;;;8.73;;
83115;SDS011;72996;40.206;44.498;2023-12-20T01:12:17;20.08;;;8.63;;
83115;SDS011;72996;40.206;44.498;2023-12-20T01:14:42;17.77;;;7.65;;
83115;SDS011;72996;40.206;44.498;2023-12-20T01:17:08;15.88;;;7.30;;
83115;SDS011;72996;40.206;44.498;2023-12-20T01:19:34;17.98;;;7.63;;
83115;SDS011;72996;40.206;44.498;2023-12-20T01:22:00;14.00;;;6.60;;
83115;SDS011;72996;40.206;44.498;2023-12-20T01:24:25;15.38;;;7.10;;
83115;SDS011;72996;40.206;44.498;2023-12-20T01:26:51;19.02;;;8.25;;
83115;SDS011;72996;40.206;44.498;2023-12-20T01:29:16;19.60;;;9.80;;
83115;SDS011;72996;40.206;44.498;2023-12-20T01:31:42;23.20;;;9.73;;
83115;SDS011;72996;40.206;44.498;2023-12-20T01:34:08;32.03;;;12.48;;
83115;SDS011;72996;40.206;44.498;2023-12-20T01:36:33;33.33;;;13.48;;
83115;SDS011;72996;40.206;44.498;2023-12-20T01:38:59;27.20;;;11.98;;
83115;SDS011;72996;40.206;44.498;2023-12-20T01:41:25;29.08;;;11.38;;
83115;SDS011;72996;40.206;44.498;2023-12-20T01:43:50;23.88;;;10.65;;
83115;SDS011;72996;40.206;44.498;2023-12-20T01:46:18;22.10;;;10.00;;
83115;SDS011;72996;40.206;44.498;2023-12-20T01:48:45;20.70;;;11.00;;
83115;SDS011;72996;40.206;44.498;2023-12-20T01:51:11;21.77;;;9.68;;
83115;SDS011;72996;40.206;44.498;2023-12-20T01:53:36;17.23;;;8.93;;
83115;SDS011;72996;40.206;44.498;2023-12-20T01:56:03;20.38;;;9.18;;
83115;SDS011;72996;40.206;44.498;2023-12-20T01:58:29;16.83;;;8.18;;
83115;SDS011;72996;40.206;44.498;2023-12-20T02:00:55;20.90;;;8.15;;
83115;SDS011;72996;40.206;44.498;2023-12-20T02:03:20;17.30;;;7.10;;
83115;SDS011;72996;40.206;44.498;2023-12-20T02:05:46;17.80;;;7.93;;
83115;SDS011;72996;40.206;44.498;2023-12-20T02:08:13;19.63;;;7.32;;
83115;SDS011;72996;40.206;44.498;2023-12-20T02:10:39;18.08;;;8.57;;
83115;SDS011;72996;40.206;44.498;2023-12-20T02:13:06;21.35;;;8.98;;
83115;SDS011;72996;40.206;44.498;2023-12-20T02:15:31;17.85;;;8.48;;
83115;SDS011;72996;40.206;44.498;2023-12-20T02:17:57;18.20;;;8.63;;
83115;SDS011;72996;40.206;44.498;2023-12-20T02:20:23;19.98;;;7.85;;
83115;SDS011;72996;40.206;44.498;2023-12-20T02:22:48;15.80;;;7.78;;
83115;SDS011;72996;40.206;44.498;2023-12-20T02:25:14;15.40;;;6.93;;
83115;SDS011;72996;40.206;44.498;2023-12-20T02:27:40;15.98;;;7.25;;
83115;SDS011;72996;40.206;44.498;2023-12-20T02:30:06;16.33;;;7.05;;
83115;SDS011;72996;40.206;44.498;2023-12-20T02:32:32;14.57;;;6.85;;
83115;SDS011;72996;40.206;44.498;2023-12-20T02:34:57;17.90;;;8.85;;
83115;SDS011;72996;40.206;44.498;2023-12-20T02:37:23;19.55;;;7.97;;
83115;SDS011;72996;40.206;44.498;2023-12-20T02:39:49;18.70;;;9.05;;
83115;SDS011;72996;40.206;44.498;2023-12-20T02:42:15;21.40;;;9.95;;
83115;SDS011;72996;40.206;44.498;2023-12-20T02:44:40;18.52;;;8.30;;
83115;SDS011;72996;40.206;44.498;2023-12-20T02:47:06;18.08;;;8.20;;
83115;SDS011;72996;40.206;44.498;2023-12-20T02:49:32;19.70;;;9.23;;
83115;SDS011;72996;40.206;44.498;2023-12-20T02:51:57;20.85;;;9.10;;
83115;SDS011;72996;40.206;44.498;2023-12-20T02:54:23;20.38;;;8.98;;
83115;SDS011;72996;40.206;44.498;2023-12-20T02:56:48;21.00;;;9.05;;
83115;SDS011;72996;40.206;44.498;2023-12-20T02:59:15;19.80;;;8.70;;
83115;SDS011;72996;40.206;44.498;2023-12-20T03:01:44;22.80;;;9.55;;
83115;SDS011;72996;40.206;44.498;2023-12-20T03:04:11;24.77;;;10.05;;
83115;SDS011;72996;40.206;44.498;2023-12-20T03:06:37;21.45;;;9.05;;
83115;SDS011;72996;40.206;44.498;2023-12-20T03:09:03;21.10;;;9.15;;
83115;SDS011;72996;40.206;44.498;2023-12-20T03:11:29;21.50;;;9.02;;
83115;SDS011;72996;40.206;44.498;2023-12-20T03:13:55;20.35;;;9.70;;
83115;SDS011;72996;40.206;44.498;2023-12-20T03:16:21;20.85;;;9.40;;
83115;SDS011;72996;40.206;44.498;2023-12-20T03:18:47;27.75;;;9.60;;
83115;SDS011;72996;40.206;44.498;2023-12-20T03:21:12;19.90;;;9.65;;
83115;SDS011;72996;40.206;44.498;2023-12-20T03:23:38;20.33;;;9.52;;
83115;SDS011;72996;40.206;44.498;2023-12-20T03:26:06;22.48;;;9.57;;
83115;SDS011;72996;40.206;44.498;2023-12-20T03:30:57;22.75;;;10.55;;
83115;SDS011;72996;40.206;44.498;2023-12-20T03:33:23;27.48;;;12.68;;
83115;SDS011;72996;40.206;44.498;2023-12-20T03:35:48;34.75;;;16.60;;
83115;SDS011;72996;40.206;44.498;2023-12-20T03:38:14;30.65;;;14.48;;
83115;SDS011;72996;40.206;44.498;2023-12-20T03:40:40;29.05;;;13.90;;
83115;SDS011;72996;40.206;44.498;2023-12-20T03:43:05;30.55;;;13.98;;
83115;SDS011;72996;40.206;44.498;2023-12-20T03:45:31;29.95;;;14.18;;
83115;SDS011;72996;40.206;44.498;2023-12-20T03:47:56;31.52;;;13.65;;
83115;SDS011;72996;40.206;44.498;2023-12-20T03:50:22;25.48;;;12.95;;
83115;SDS011;72996;40.206;44.498;2023-12-20T03:52:48;27.60;;;11.52;;
83115;SDS011;72996;40.206;44.498;2023-12-20T03:55:14;25.38;;;11.55;;
83115;SDS011;72996;40.206;44.498;2023-12-20T03:57:41;28.25;;;12.13;;
83115;SDS011;72996;40.206;44.498;2023-12-20T04:00:07;25.50;;;11.05;;
83115;SDS011;72996;40.206;44.498;2023-12-20T04:02:39;27.58;;;11.63;;
83115;SDS011;72996;40.206;44.498;2023-12-20T04:05:06;27.15;;;12.77;;
83115;SDS011;72996;40.206;44.498;2023-12-20T04:07:32;23.73;;;10.50;;
83115;SDS011;72996;40.206;44.498;2023-12-20T04:09:58;28.13;;;11.88;;
83115;SDS011;72996;40.206;44.498;2023-12-20T04:12:23;20.23;;;10.90;;
83115;SDS011;72996;40.206;44.498;2023-12-20T04:14:50;25.42;;;11.57;;
83115;SDS011;72996;40.206;44.498;2023-12-20T04:17:15;25.60;;;13.00;;
83115;SDS011;72996;40.206;44.498;2023-12-20T04:19:42;25.88;;;11.40;;
83115;SDS011;72996;40.206;44.498;2023-12-20T04:22:08;27.17;;;11.43;;
83115;SDS011;72996;40.206;44.498;2023-12-20T04:24:34;21.98;;;9.73;;
83115;SDS011;72996;40.206;44.498;2023-12-20T04:26:59;25.80;;;10.55;;
83115;SDS011;72996;40.206;44.498;2023-12-20T04:29:25;25.83;;;10.07;;
83115;SDS011;72996;40.206;44.498;2023-12-20T04:31:51;22.50;;;10.75;;
83115;SDS011;72996;40.206;44.498;2023-12-20T04:34:17;19.17;;;10.10;;
83115;SDS011;72996;40.206;44.498;2023-12-20T04:36:43;24.17;;;9.43;;
83115;SDS011;72996;40.206;44.498;2023-12-20T04:39:09;21.60;;;10.10;;
83115;SDS011;72996;40.206;44.498;2023-12-20T04:41:35;23.50;;;9.45;;
83115;SDS011;72996;40.206;44.498;2023-12-20T04:44:01;22.95;;;10.05;;
83115;SDS011;72996;40.206;44.498;2023-12-20T04:46:27;19.95;;;9.93;;
83115;SDS011;72996;40.206;44.498;2023-12-20T04:48:52;19.67;;;9.65;;
83115;SDS011;72996;40.206;44.498;2023-12-20T04:51:18;18.50;;;9.43;;
83115;SDS011;72996;40.206;44.498;2023-12-20T04:53:44;24.92;;;9.10;;
83115;SDS011;72996;40.206;44.498;2023-12-20T04:56:09;22.55;;;10.10;;
83115;SDS011;72996;40.206;44.498;2023-12-20T04:58:35;29.27;;;9.40;;
83115;SDS011;72996;40.206;44.498;2023-12-20T05:01:01;20.25;;;9.10;;
83115;SDS011;72996;40.206;44.498;2023-12-20T05:03:26;21.80;;;10.15;;
83115;SDS011;72996;40.206;44.498;2023-12-20T05:05:52;25.63;;;10.70;;
83115;SDS011;72996;40.206;44.498;2023-12-20T05:08:18;24.27;;;11.05;;
83115;SDS011;72996;40.206;44.498;2023-12-20T05:10:43;25.55;;;11.63;;
83115;SDS011;72996;40.206;44.498;2023-12-20T05:13:09;23.88;;;12.20;;
83115;SDS011;72996;40.206;44.498;2023-12-20T05:15:35;23.48;;;11.15;;
83115;SDS011;72996;40.206;44.498;2023-12-20T05:18:00;25.13;;;12.00;;
83115;SDS011;72996;40.206;44.498;2023-12-20T05:20:26;27.48;;;10.57;;
83115;SDS011;72996;40.206;44.498;2023-12-20T05:22:51;28.88;;;10.80;;
83115;SDS011;72996;40.206;44.498;2023-12-20T05:25:17;25.05;;;10.15;;
83115;SDS011;72996;40.206;44.498;2023-12-20T05:27:43;24.30;;;11.18;;
83115;SDS011;72996;40.206;44.498;2023-12-20T05:30:08;23.73;;;11.48;;
83115;SDS011;72996;40.206;44.498;2023-12-20T05:32:34;24.08;;;11.85;;
83115;SDS011;72996;40.206;44.498;2023-12-20T05:35:00;29.25;;;12.00;;
83115;SDS011;72996;40.206;44.498;2023-12-20T05:37:25;26.25;;;12.57;;
83115;SDS011;72996;40.206;44.498;2023-12-20T05:39:51;25.75;;;13.07;;
83115;SDS011;72996;40.206;44.498;2023-12-20T05:42:17;33.80;;;12.02;;
83115;SDS011;72996;40.206;44.498;2023-12-20T05:44:42;24.00;;;12.38;;
83115;SDS011;72996;40.206;44.498;2023-12-20T05:47:08;24.55;;;11.70;;
83115;SDS011;72996;40.206;44.498;2023-12-20T05:49:33;25.60;;;11.35;;
83115;SDS011;72996;40.206;44.498;2023-12-20T05:51:59;27.80;;;11.45;;
83115;SDS011;72996;40.206;44.498;2023-12-20T05:54:24;29.10;;;12.35;;
83115;SDS011;72996;40.206;44.498;2023-12-20T05:56:50;28.10;;;12.70;;
83115;SDS011;72996;40.206;44.498;2023-12-20T05:59:16;25.30;;;12.02;;
83115;SDS011;72996;40.206;44.498;2023-12-20T06:01:41;34.42;;;13.93;;
83115;SDS011;72996;40.206;44.498;2023-12-20T06:04:07;38.92;;;27.58;;
83115;SDS011;72996;40.206;44.498;2023-12-20T06:06:33;39.22;;;16.08;;
83115;SDS011;72996;40.206;44.498;2023-12-20T06:08:58;26.50;;;13.20;;
83115;SDS011;72996;40.206;44.498;2023-12-20T06:11:24;32.65;;;14.75;;
83115;SDS011;72996;40.206;44.498;2023-12-20T06:13:51;36.20;;;14.98;;
83115;SDS011;72996;40.206;44.498;2023-12-20T06:16:18;38.88;;;15.10;;
83115;SDS011;72996;40.206;44.498;2023-12-20T06:18:44;28.73;;;13.88;;
83115;SDS011;72996;40.206;44.498;2023-12-20T06:21:10;35.50;;;14.35;;
83115;SDS011;72996;40.206;44.498;2023-12-20T06:23:38;30.05;;;15.20;;
83115;SDS011;72996;40.206;44.498;2023-12-20T06:26:04;39.60;;;17.42;;
83115;SDS011;72996;40.206;44.498;2023-12-20T06:28:30;36.83;;;16.13;;
83115;SDS011;72996;40.206;44.498;2023-12-20T06:30:55;41.85;;;15.60;;
83115;SDS011;72996;40.206;44.498;2023-12-20T06:33:22;35.75;;;15.13;;
83115;SDS011;72996;40.206;44.498;2023-12-20T06:35:48;35.53;;;16.40;;
83115;SDS011;72996;40.206;44.498;2023-12-20T06:38:14;35.88;;;16.27;;
83115;SDS011;72996;40.206;44.498;2023-12-20T06:40:40;32.15;;;15.25;;
83115;SDS011;72996;40.206;44.498;2023-12-20T06:43:05;39.00;;;16.63;;
83115;SDS011;72996;40.206;44.498;2023-12-20T06:45:32;40.35;;;16.13;;
83115;SDS011;72996;40.206;44.498;2023-12-20T06:47:57;36.42;;;16.77;;
83115;SDS011;72996;40.206;44.498;2023-12-20T06:50:23;33.13;;;14.70;;
83115;SDS011;72996;40.206;44.498;2023-12-20T06:52:49;31.88;;;15.60;;
83115;SDS011;72996;40.206;44.498;2023-12-20T06:55:15;41.00;;;15.63;;
83115;SDS011;72996;40.206;44.498;2023-12-20T06:57:42;29.20;;;15.50;;
83115;SDS011;72996;40.206;44.498;2023-12-20T07:00:08;39.22;;;18.58;;
83115;SDS011;72996;40.206;44.498;2023-12-20T07:02:36;34.30;;;17.27;;
83115;SDS011;72996;40.206;44.498;2023-12-20T07:05:01;40.50;;;17.83;;
83115;SDS011;72996;40.206;44.498;2023-12-20T07:07:27;44.60;;;17.95;;
83115;SDS011;72996;40.206;44.498;2023-12-20T07:09:53;33.10;;;17.13;;
83115;SDS011;72996;40.206;44.498;2023-12-20T07:12:18;37.95;;;18.17;;
83115;SDS011;72996;40.206;44.498;2023-12-20T07:14:47;35.38;;;16.48;;
83115;SDS011;72996;40.206;44.498;2023-12-20T07:17:12;37.92;;;18.00;;
83115;SDS011;72996;40.206;44.498;2023-12-20T07:19:40;40.40;;;21.30;;
83115;SDS011;72996;40.206;44.498;2023-12-20T07:22:07;32.78;;;18.70;;
83115;SDS011;72996;40.206;44.498;2023-12-20T07:24:33;41.70;;;20.55;;
83115;SDS011;72996;40.206;44.498;2023-12-20T07:27:00;42.33;;;19.58;;
83115;SDS011;72996;40.206;44.498;2023-12-20T07:29:26;35.85;;;19.27;;
83115;SDS011;72996;40.206;44.498;2023-12-20T07:31:54;36.30;;;19.35;;
83115;SDS011;72996;40.206;44.498;2023-12-20T07:34:20;43.50;;;19.95;;
83115;SDS011;72996;40.206;44.498;2023-12-20T07:36:46;39.50;;;19.85;;
83115;SDS011;72996;40.206;44.498;2023-12-20T07:39:12;38.65;;;20.58;;
83115;SDS011;72996;40.206;44.498;2023-12-20T07:41:38;44.92;;;22.83;;
83115;SDS011;72996;40.206;44.498;2023-12-20T07:44:04;41.50;;;21.55;;
83115;SDS011;72996;40.206;44.498;2023-12-20T07:46:30;50.22;;;22.88;;
83115;SDS011;72996;40.206;44.498;2023-12-20T07:48:55;35.40;;;20.45;;
83115;SDS011;72996;40.206;44.498;2023-12-20T07:51:21;49.42;;;21.67;;
83115;SDS011;72996;40.206;44.498;2023-12-20T07:53:47;49.10;;;21.63;;
83115;SDS011;72996;40.206;44.498;2023-12-20T07:56:16;82.25;;;25.77;;
83115;SDS011;72996;40.206;44.498;2023-12-20T07:58:42;37.92;;;20.77;;
83115;SDS011;72996;40.206;44.498;2023-12-20T08:01:09;36.70;;;20.13;;
83115;SDS011;72996;40.206;44.498;2023-12-20T08:03:36;36.47;;;19.80;;
83115;SDS011;72996;40.206;44.498;2023-12-20T08:06:02;38.67;;;19.83;;
83115;SDS011;72996;40.206;44.498;2023-12-20T08:08:28;37.88;;;20.27;;
83115;SDS011;72996;40.206;44.498;2023-12-20T08:10:54;48.33;;;21.30;;
83115;SDS011;72996;40.206;44.498;2023-12-20T08:13:19;43.20;;;20.40;;
83115;SDS011;72996;40.206;44.498;2023-12-20T08:15:50;44.58;;;22.35;;
83115;SDS011;72996;40.206;44.498;2023-12-20T08:18:15;42.40;;;23.63;;
83115;SDS011;72996;40.206;44.498;2023-12-20T08:20:41;46.05;;;25.75;;
83115;SDS011;72996;40.206;44.498;2023-12-20T08:23:06;54.05;;;27.15;;
83115;SDS011;72996;40.206;44.498;2023-12-20T08:25:32;54.08;;;27.70;;
83115;SDS011;72996;40.206;44.498;2023-12-20T08:27:58;49.90;;;28.60;;
83115;SDS011;72996;40.206;44.498;2023-12-20T08:30:23;57.88;;;30.58;;
83115;SDS011;72996;40.206;44.498;2023-12-20T08:32:50;51.25;;;29.05;;
83115;SDS011;72996;40.206;44.498;2023-12-20T08:35:16;55.28;;;30.13;;
83115;SDS011;72996;40.206;44.498;2023-12-20T08:37:43;51.78;;;28.63;;
83115;SDS011;72996;40.206;44.498;2023-12-20T08:40:08;59.22;;;32.78;;
83115;SDS011;72996;40.206;44.498;2023-12-20T08:42:34;64.57;;;30.17;;
83115;SDS011;72996;40.206;44.498;2023-12-20T08:45:00;61.97;;;31.35;;
83115;SDS011;72996;40.206;44.498;2023-12-20T08:47:26;46.20;;;26.33;;
83115;SDS011;72996;40.206;44.498;2023-12-20T08:49:52;54.25;;;29.92;;
83115;SDS011;72996;40.206;44.498;2023-12-20T08:52:24;55.75;;;31.58;;
83115;SDS011;72996;40.206;44.498;2023-12-20T08:54:50;53.78;;;30.20;;
83115;SDS011;72996;40.206;44.498;2023-12-20T08:57:20;60.90;;;32.65;;
83115;SDS011;72996;40.206;44.498;2023-12-20T08:59:48;66.85;;;34.45;;
83115;SDS011;72996;40.206;44.498;2023-12-20T09:02:13;72.50;;;35.08;;
83115;SDS011;72996;40.206;44.498;2023-12-20T09:04:39;64.45;;;32.38;;
83115;SDS011;72996;40.206;44.498;2023-12-20T09:07:05;76.68;;;38.97;;
83115;SDS011;72996;40.206;44.498;2023-12-20T09:09:30;63.45;;;34.83;;
83115;SDS011;72996;40.206;44.498;2023-12-20T09:11:57;68.22;;;33.97;;
83115;SDS011;72996;40.206;44.498;2023-12-20T09:14:23;61.78;;;34.85;;
83115;SDS011;72996;40.206;44.498;2023-12-20T09:16:49;58.55;;;35.03;;
83115;SDS011;72996;40.206;44.498;2023-12-20T09:19:16;61.30;;;33.67;;
83115;SDS011;72996;40.206;44.498;2023-12-20T09:21:43;81.25;;;36.53;;
83115;SDS011;72996;40.206;44.498;2023-12-20T09:24:08;60.17;;;34.22;;
83115;SDS011;72996;40.206;44.498;2023-12-20T09:26:34;54.05;;;33.47;;
83115;SDS011;72996;40.206;44.498;2023-12-20T09:29:00;61.83;;;32.00;;
83115;SDS011;72996;40.206;44.498;2023-12-20T09:31:26;62.10;;;35.92;;
83115;SDS011;72996;40.206;44.498;2023-12-20T09:33:52;53.08;;;31.45;;
83115;SDS011;72996;40.206;44.498;2023-12-20T09:36:17;55.05;;;31.65;;
83115;SDS011;72996;40.206;44.498;2023-12-20T09:38:43;54.40;;;30.52;;
83115;SDS011;72996;40.206;44.498;2023-12-20T09:41:08;52.42;;;32.33;;
83115;SDS011;72996;40.206;44.498;2023-12-20T09:43:37;58.88;;;31.50;;
83115;SDS011;72996;40.206;44.498;2023-12-20T09:46:04;54.75;;;31.98;;
83115;SDS011;72996;40.206;44.498;2023-12-20T09:48:32;61.33;;;36.08;;
83115;SDS011;72996;40.206;44.498;2023-12-20T09:50:58;51.58;;;30.25;;
83115;SDS011;72996;40.206;44.498;2023-12-20T09:53:24;55.88;;;32.90;;
83115;SDS011;72996;40.206;44.498;2023-12-20T09:55:56;58.60;;;33.08;;
83115;SDS011;72996;40.206;44.498;2023-12-20T09:58:25;59.67;;;31.77;;
83115;SDS011;72996;40.206;44.498;2023-12-20T10:00:50;56.80;;;33.83;;
83115;SDS011;72996;40.206;44.498;2023-12-20T10:03:18;55.22;;;31.85;;
83115;SDS011;72996;40.206;44.498;2023-12-20T10:05:49;63.28;;;32.20;;
83115;SDS011;72996;40.206;44.498;2023-12-20T10:08:20;57.90;;;32.75;;
83115;SDS011;72996;40.206;44.498;2023-12-20T10:10:47;61.28;;;31.23;;
83115;SDS011;72996;40.206;44.498;2023-12-20T10:13:13;57.72;;;33.22;;
83115;SDS011;72996;40.206;44.498;2023-12-20T10:15:38;60.40;;;34.35;;
83115;SDS011;72996;40.206;44.498;2023-12-20T10:18:05;72.60;;;33.55;;
83115;SDS011;72996;40.206;44.498;2023-12-20T10:20:32;60.10;;;34.80;;
83115;SDS011;72996;40.206;44.498;2023-12-20T10:22:58;63.45;;;33.58;;
83115;SDS011;72996;40.206;44.498;2023-12-20T10:25:25;58.42;;;32.20;;
83115;SDS011;72996;40.206;44.498;2023-12-20T10:28:08;60.03;;;33.90;;
83115;SDS011;72996;40.206;44.498;2023-12-20T10:30:38;59.53;;;32.90;;
83115;SDS011;72996;40.206;44.498;2023-12-20T10:33:05;62.38;;;32.40;;
83115;SDS011;72996;40.206;44.498;2023-12-20T10:35:33;59.95;;;34.03;;
83115;SDS011;72996;40.206;44.498;2023-12-20T10:37:59;65.60;;;33.85;;
83115;SDS011;72996;40.206;44.498;2023-12-20T10:40:30;70.53;;;43.95;;
83115;SDS011;72996;40.206;44.498;2023-12-20T10:42:59;71.78;;;34.45;;
83115;SDS011;72996;40.206;44.498;2023-12-20T10:45:26;62.35;;;32.38;;
83115;SDS011;72996;40.206;44.498;2023-12-20T10:47:52;68.45;;;34.55;;
83115;SDS011;72996;40.206;44.498;2023-12-20T10:50:18;62.30;;;33.35;;
83115;SDS011;72996;40.206;44.498;2023-12-20T10:52:45;67.35;;;35.50;;
83115;SDS011;72996;40.206;44.498;2023-12-20T10:55:12;74.55;;;36.10;;
83115;SDS011;72996;40.206;44.498;2023-12-20T10:57:38;70.18;;;36.45;;
83115;SDS011;72996;40.206;44.498;2023-12-20T11:00:05;77.75;;;37.92;;
83115;SDS011;72996;40.206;44.498;2023-12-20T11:02:35;74.40;;;36.90;;
83115;SDS011;72996;40.206;44.498;2023-12-20T11:08:01;60.78;;;33.42;;
83115;SDS011;72996;40.206;44.498;2023-12-20T11:10:56;63.65;;;33.15;;
83115;SDS011;72996;40.206;44.498;2023-12-20T11:13:57;66.93;;;33.65;;
83115;SDS011;72996;40.206;44.498;2023-12-20T11:16:26;67.68;;;34.17;;
83115;SDS011;72996;40.206;44.498;2023-12-20T11:18:52;68.63;;;36.42;;
83115;SDS011;72996;40.206;44.498;2023-12-20T11:21:18;71.15;;;34.08;;
83115;SDS011;72996;40.206;44.498;2023-12-20T11:23:44;68.30;;;34.97;;
83115;SDS011;72996;40.206;44.498;2023-12-20T11:26:09;64.38;;;36.47;;
83115;SDS011;72996;40.206;44.498;2023-12-20T11:28:35;71.05;;;34.53;;
83115;SDS011;72996;40.206;44.498;2023-12-20T11:31:01;66.55;;;31.73;;
83115;SDS011;72996;40.206;44.498;2023-12-20T11:33:31;72.57;;;36.47;;
83115;SDS011;72996;40.206;44.498;2023-12-20T11:36:03;64.90;;;34.60;;
83115;SDS011;72996;40.206;44.498;2023-12-20T11:38:37;62.88;;;33.20;;
83115;SDS011;72996;40.206;44.498;2023-12-20T11:41:05;71.75;;;34.63;;
83115;SDS011;72996;40.206;44.498;2023-12-20T11:46:06;70.03;;;34.55;;
83115;SDS011;72996;40.206;44.498;2023-12-20T11:48:37;61.78;;;33.22;;
83115;SDS011;72996;40.206;44.498;2023-12-20T11:51:10;60.25;;;32.53;;
83115;SDS011;72996;40.206;44.498;2023-12-20T11:53:36;61.97;;;31.00;;
83115;SDS011;72996;40.206;44.498;2023-12-20T11:56:02;68.93;;;34.25;;
83115;SDS011;72996;40.206;44.498;2023-12-20T11:58:29;64.70;;;32.90;;
83115;SDS011;72996;40.206;44.498;2023-12-20T12:00:55;60.65;;;32.15;;
83115;SDS011;72996;40.206;44.498;2023-12-20T12:03:21;59.92;;;31.83;;
83115;SDS011;72996;40.206;44.498;2023-12-20T12:05:49;67.80;;;35.95;;
83115;SDS011;72996;40.206;44.498;2023-12-20T12:08:15;69.07;;;35.75;;
83115;SDS011;72996;40.206;44.498;2023-12-20T12:10:42;70.60;;;36.50;;
83115;SDS011;72996;40.206;44.498;2023-12-20T12:13:09;64.05;;;35.10;;
83115;SDS011;72996;40.206;44.498;2023-12-20T12:15:35;63.55;;;33.28;;
83115;SDS011;72996;40.206;44.498;2023-12-20T12:18:01;65.00;;;32.33;;
83115;SDS011;72996;40.206;44.498;2023-12-20T12:20:27;66.32;;;34.90;;
83115;SDS011;72996;40.206;44.498;2023-12-20T12:23:05;69.85;;;33.38;;
83115;SDS011;72996;40.206;44.498;2023-12-20T12:25:32;63.20;;;32.28;;
83115;SDS011;72996;40.206;44.498;2023-12-20T12:28:00;68.07;;;34.20;;
83115;SDS011;72996;40.206;44.498;2023-12-20T12:30:27;63.83;;;32.85;;
83115;SDS011;72996;40.206;44.498;2023-12-20T12:32:53;63.58;;;32.47;;
83115;SDS011;72996;40.206;44.498;2023-12-20T12:35:19;62.55;;;31.08;;
83115;SDS011;72996;40.206;44.498;2023-12-20T12:37:45;70.75;;;36.13;;
83115;SDS011;72996;40.206;44.498;2023-12-20T12:40:12;65.30;;;33.38;;
83115;SDS011;72996;40.206;44.498;2023-12-20T12:42:39;81.72;;;45.15;;
83115;SDS011;72996;40.206;44.498;2023-12-20T12:45:06;65.15;;;33.20;;
83115;SDS011;72996;40.206;44.498;2023-12-20T12:47:32;66.75;;;33.75;;
83115;SDS011;72996;40.206;44.498;2023-12-20T12:49:59;71.50;;;34.13;;
83115;SDS011;72996;40.206;44.498;2023-12-20T12:52:25;62.42;;;33.15;;
83115;SDS011;72996;40.206;44.498;2023-12-20T12:54:51;66.75;;;34.35;;
83115;SDS011;72996;40.206;44.498;2023-12-20T12:57:18;63.72;;;34.45;;
83115;SDS011;72996;40.206;44.498;2023-12-20T12:59:44;63.83;;;30.92;;
83115;SDS011;72996;40.206;44.498;2023-12-20T13:02:13;72.60;;;36.10;;
83115;SDS011;72996;40.206;44.498;2023-12-20T13:04:42;57.47;;;32.75;;
83115;SDS011;72996;40.206;44.498;2023-12-20T13:07:08;66.03;;;33.92;;
83115;SDS011;72996;40.206;44.498;2023-12-20T13:09:37;67.28;;;33.63;;
83115;SDS011;72996;40.206;44.498;2023-12-20T13:12:04;74.28;;;32.55;;
83115;SDS011;72996;40.206;44.498;2023-12-20T13:14:33;66.38;;;34.70;;
83115;SDS011;72996;40.206;44.498;2023-12-20T13:17:00;59.80;;;32.15;;
83115;SDS011;72996;40.206;44.498;2023-12-20T13:19:26;64.93;;;34.17;;
83115;SDS011;72996;40.206;44.498;2023-12-20T13:21:52;73.40;;;36.00;;
83115;SDS011;72996;40.206;44.498;2023-12-20T13:24:18;55.88;;;31.98;;
83115;SDS011;72996;40.206;44.498;2023-12-20T13:26:44;64.13;;;32.25;;
83115;SDS011;72996;40.206;44.498;2023-12-20T13:29:09;71.50;;;34.50;;
83115;SDS011;72996;40.206;44.498;2023-12-20T13:31:35;69.38;;;35.50;;
83115;SDS011;72996;40.206;44.498;2023-12-20T13:34:01;64.47;;;36.55;;
83115;SDS011;72996;40.206;44.498;2023-12-20T13:36:27;62.17;;;32.55;;
83115;SDS011;72996;40.206;44.498;2023-12-20T13:38:52;71.82;;;33.35;;
83115;SDS011;72996;40.206;44.498;2023-12-20T13:41:19;67.47;;;33.83;;
83115;SDS011;72996;40.206;44.498;2023-12-20T13:43:45;62.13;;;31.13;;
83115;SDS011;72996;40.206;44.498;2023-12-20T13:46:10;63.78;;;30.80;;
83115;SDS011;72996;40.206;44.498;2023-12-20T13:48:36;67.35;;;31.10;;
83115;SDS011;72996;40.206;44.498;2023-12-20T13:51:02;66.25;;;31.40;;
83115;SDS011;72996;40.206;44.498;2023-12-20T13:53:28;61.92;;;30.92;;
83115;SDS011;72996;40.206;44.498;2023-12-20T13:55:53;53.42;;;29.42;;
83115;SDS011;72996;40.206;44.498;2023-12-20T13:58:19;61.22;;;31.10;;
83115;SDS011;72996;40.206;44.498;2023-12-20T14:00:45;55.30;;;30.20;;
83115;SDS011;72996;40.206;44.498;2023-12-20T14:03:11;60.38;;;29.98;;
83115;SDS011;72996;40.206;44.498;2023-12-20T14:05:36;58.75;;;29.50;;
83115;SDS011;72996;40.206;44.498;2023-12-20T14:08:02;53.60;;;27.80;;
83115;SDS011;72996;40.206;44.498;2023-12-20T14:10:28;55.97;;;30.08;;
83115;SDS011;72996;40.206;44.498;2023-12-20T14:12:54;62.55;;;30.98;;
83115;SDS011;72996;40.206;44.498;2023-12-20T14:15:20;60.13;;;31.27;;
83115;SDS011;72996;40.206;44.498;2023-12-20T14:17:45;64.93;;;31.45;;